Airport Name : Curtis Fld

Other Name : Brady

ICAO : KBBD

IATA : BBD

FAA : BBD

Latitude : 31.179289

Longitude : -99.323928

Country : United States

Local Date and Time : 10/15/2018 5:27:00 PM

 

TAF (Terminal Aerodrome Forecast)

KBBD 151748Z 1518/1618 36018G26KT 5SM SHRA BR OVC008 TEMPO 1518/1520 2SM SHRA BR OVC006 FM160300 02014KT 2SM SHRA BR OVC006

 

METAR (METeorological Aerodrome Report)

KBBD 152215Z AUTO 01013G21KT 1 1/4SM -RA OVC008 04/03 A3023 RMK AO2

KBBD 152155Z AUTO 36014G19KT 10SM OVC008 04/03 A3024 RMK AO2

KBBD 152135Z AUTO 01016G22KT 10SM OVC008 04/03 A3025 RMK AO2

KBBD 152115Z AUTO 36012G21KT 10SM OVC007 04/03 A3025 RMK AO2

KBBD 152055Z AUTO 36016KT 10SM OVC006 04/03 A3024 RMK AO2

KBBD 152035Z AUTO 36018G25KT 10SM BKN006 OVC009 04/03 A3022 RMK AO2

KBBD 152015Z AUTO 35021G27KT 10SM BKN006 BKN009 OVC013 03/03 A3023 RMK AO2

KBBD 151955Z AUTO 36014G23KT 7SM -RA BKN005 OVC009 03/03 A3024 RMK AO2 P0008

KBBD 151935Z AUTO 36016G23KT 4SM RA BKN005 OVC008 03/03 A3025 RMK AO2

KBBD 151915Z AUTO 36021G26KT 3SM RA BKN006 BKN010 BKN014 03/02 A3025 RMK AO2

KBBD 151855Z AUTO 36015KT 2 1/2SM +RA OVC007 03/02 A3028 RMK AO2 P0026

KBBD 151835Z AUTO 36014G22KT 2SM +RA BKN006 OVC012 03/02 A3030 RMK AO2